Time;durP1;ratioP1;P1;durP2;ratioP2;P2;SDS_P1;SDS_P2;PMS_P1;PMS_P2;Temp;Humidity;BMP_temperature;BMP_pressure;BME280_temperature;BME280_humidity;BME280_pressure;Samples;Min_cycle;Max_cycle;Signal;HPM_P1;HPM_P2
2021/05/28 00:02:03;;;;;;;4.43;4.03;;;8.60;99.90;;;;;;5093008;28;20460;-50
2021/05/28 00:04:30;;;;;;;6.13;4.53;;;8.50;99.90;;;;;;5082463;28;20504;-49
2021/05/28 00:06:56;;;;;;;5.10;4.60;;;8.40;99.90;;;;;;5072498;28;20849;-49
2021/05/28 00:09:23;;;;;;;8.00;4.57;;;8.40;99.90;;;;;;5072209;28;20935;-49
2021/05/28 00:11:50;;;;;;;6.80;5.10;;;8.40;99.90;;;;;;5072336;28;20452;-50
2021/05/28 00:14:17;;;;;;;5.27;4.17;;;8.40;99.90;;;;;;5079284;28;20507;-49
2021/05/28 00:16:44;;;;;;;5.57;4.50;;;8.40;99.90;;;;;;5092311;28;20454;-49
2021/05/28 00:19:10;;;;;;;4.70;3.80;;;8.40;99.90;;;;;;5092598;28;20502;-49
2021/05/28 00:21:37;;;;;;;5.50;3.90;;;8.40;99.90;;;;;;5090608;28;20461;-50
2021/05/28 00:24:05;;;;;;;4.03;3.53;;;8.30;99.90;;;;;;5117340;22;20496;-48
2021/05/28 00:26:31;;;;;;;4.10;3.70;;;8.30;99.90;;;;;;5102297;28;20457;-48
2021/05/28 00:28:59;;;;;;;4.60;3.87;;;8.30;99.90;;;;;;5092733;28;20570;-48
2021/05/28 00:31:25;;;;;;;4.20;3.83;;;8.30;99.90;;;;;;5092601;28;20453;-48
2021/05/28 00:33:52;;;;;;;7.30;3.90;;;8.30;99.90;;;;;;5084160;28;20474;-48
2021/05/28 00:36:18;;;;;;;3.73;3.30;;;8.30;99.90;;;;;;5072561;28;20447;-48
2021/05/28 00:38:46;;;;;;;3.63;3.30;;;8.20;99.90;;;;;;5072338;28;20448;-47
2021/05/28 00:41:14;;;;;;;3.47;3.13;;;8.30;99.90;;;;;;5085419;28;20452;-48
2021/05/28 00:43:40;;;;;;;4.37;3.40;;;8.20;99.90;;;;;;5091700;28;20469;-48
2021/05/28 00:46:08;;;;;;;3.97;3.50;;;8.30;99.90;;;;;;5092190;28;21054;-48
2021/05/28 00:48:34;;;;;;;4.00;3.47;;;8.30;99.90;;;;;;5092595;28;20450;-48
2021/05/28 00:51:01;;;;;;;4.93;4.00;;;8.20;99.90;;;;;;5092393;28;20455;-48
2021/05/28 00:53:29;;;;;;;5.63;3.73;;;8.20;99.90;;;;;;5092256;28;20466;-48
2021/05/28 00:55:57;;;;;;;5.27;4.00;;;8.20;99.90;;;;;;5084743;28;20481;-48
2021/05/28 00:58:24;;;;;;;8.67;4.30;;;8.20;99.90;;;;;;5092036;28;20452;-48
2021/05/28 01:00:50;;;;;;;7.30;4.10;;;8.10;99.90;;;;;;5092098;28;21030;-48
2021/05/28 01:03:18;;;;;;;5.03;4.53;;;8.20;99.90;;;;;;5091606;28;20480;-49
2021/05/28 01:05:44;;;;;;;5.03;4.17;;;8.10;99.90;;;;;;5091394;28;20883;-48
2021/05/28 01:08:11;;;;;;;6.43;4.67;;;8.10;99.90;;;;;;5091549;28;20444;-48
2021/05/28 01:10:37;;;;;;;4.47;4.07;;;8.10;99.90;;;;;;5080304;28;20457;-48
2021/05/28 01:13:05;;;;;;;4.53;3.80;;;8.20;99.90;;;;;;5075411;28;21135;-48
2021/05/28 01:15:32;;;;;;;7.10;4.30;;;8.20;99.90;;;;;;5077743;28;20487;-48
2021/05/28 01:17:58;;;;;;;5.57;4.20;;;8.10;99.90;;;;;;5092065;28;20859;-48
2021/05/28 01:20:26;;;;;;;5.73;4.27;;;8.00;99.90;;;;;;5091783;28;20450;-48
2021/05/28 01:22:55;;;;;;;4.10;3.53;;;8.00;99.90;;;;;;5091438;28;20457;-48
2021/05/28 01:25:23;;;;;;;5.57;4.37;;;8.00;99.90;;;;;;5091548;28;20495;-48
2021/05/28 01:27:49;;;;;;;6.03;4.43;;;7.90;99.90;;;;;;5091533;28;20520;-48
2021/05/28 01:30:16;;;;;;;5.17;4.43;;;8.00;99.90;;;;;;5091707;28;20457;-48
2021/05/28 01:32:43;;;;;;;4.97;4.00;;;7.90;99.90;;;;;;5091710;28;20515;-48
2021/05/28 01:35:12;;;;;;;5.70;3.70;;;7.80;99.90;;;;;;5090968;28;20517;-48
2021/05/28 01:37:39;;;;;;;4.90;3.83;;;7.80;99.90;;;;;;5091811;28;20512;-48
2021/05/28 01:40:08;;;;;;;4.50;3.53;;;7.80;99.90;;;;;;5091692;28;20457;-48
2021/05/28 01:42:35;;;;;;;3.70;3.40;;;7.80;99.90;;;;;;5091709;28;20456;-48
2021/05/28 01:45:03;;;;;;;3.77;3.47;;;7.90;99.90;;;;;;5090899;28;20471;-48
2021/05/28 01:47:29;;;;;;;5.77;3.43;;;7.90;99.90;;;;;;5091270;28;20899;-47
2021/05/28 01:49:56;;;;;;;3.87;3.40;;;7.80;99.90;;;;;;5091167;28;20441;-48
2021/05/28 01:52:23;;;;;;;3.87;3.57;;;7.80;99.90;;;;;;5091693;28;20836;-48
2021/05/28 01:54:50;;;;;;;4.50;3.50;;;7.80;99.90;;;;;;5090461;28;20488;-48
2021/05/28 01:57:18;;;;;;;4.50;3.50;;;7.80;99.90;;;;;;5091935;28;20468;-48
2021/05/28 01:59:45;;;;;;;4.43;3.77;;;7.70;99.90;;;;;;5091353;28;20462;-48
2021/05/28 02:02:13;;;;;;;3.73;3.40;;;7.70;99.90;;;;;;5091507;28;20460;-47
2021/05/28 02:04:39;;;;;;;5.70;3.40;;;7.80;99.90;;;;;;5090214;28;20839;-48
2021/05/28 02:07:06;;;;;;;4.90;3.50;;;7.80;99.90;;;;;;5091119;28;20446;-48
2021/05/28 02:09:33;;;;;;;4.47;3.87;;;7.70;99.90;;;;;;5091553;28;20463;-48
2021/05/28 02:12:00;;;;;;;4.27;3.50;;;7.50;99.90;;;;;;5090872;28;20526;-48
2021/05/28 02:14:28;;;;;;;3.70;3.33;;;7.50;99.90;;;;;;5089867;28;20477;-48
2021/05/28 02:16:55;;;;;;;6.00;3.40;;;7.50;99.90;;;;;;5090640;28;20454;-47
2021/05/28 02:19:22;;;;;;;3.37;3.07;;;7.60;99.90;;;;;;5092423;28;20453;-47
2021/05/28 02:21:49;;;;;;;3.97;3.00;;;7.50;99.90;;;;;;5095083;28;20491;-47
2021/05/28 02:24:16;;;;;;;3.30;2.80;;;7.60;99.90;;;;;;5091593;28;20998;-48
2021/05/28 02:26:45;;;;;;;3.90;3.57;;;7.60;99.90;;;;;;5074615;28;20455;-48
2021/05/28 02:29:11;;;;;;;3.60;3.03;;;7.60;99.90;;;;;;5074809;28;20450;-47
2021/05/28 02:31:39;;;;;;;3.33;3.03;;;7.60;99.90;;;;;;5087735;28;20449;-48
2021/05/28 02:34:05;;;;;;;5.43;2.73;;;7.60;99.90;;;;;;5093850;28;20883;-48
2021/05/28 02:36:32;;;;;;;3.20;2.87;;;7.60;99.90;;;;;;5094683;28;20458;-48
2021/05/28 02:38:59;;;;;;;3.93;2.90;;;7.60;99.90;;;;;;5095106;28;20869;-47
2021/05/28 02:41:25;;;;;;;3.40;2.63;;;7.60;99.90;;;;;;5094809;28;20450;-48
2021/05/28 02:43:52;;;;;;;3.10;2.80;;;7.60;99.90;;;;;;5094217;28;20826;-48
2021/05/28 02:46:19;;;;;;;4.40;2.80;;;7.60;99.90;;;;;;5091829;28;20961;-47
2021/05/28 02:48:47;;;;;;;3.90;2.73;;;7.60;99.90;;;;;;5094108;28;20451;-48
2021/05/28 02:51:14;;;;;;;3.17;2.67;;;7.60;99.90;;;;;;5094206;28;20455;-48
2021/05/28 02:53:44;;;;;;;4.10;2.53;;;7.60;99.90;;;;;;5094217;28;21051;-48
2021/05/28 02:56:11;;;;;;;4.63;3.03;;;7.50;99.90;;;;;;5093562;28;20682;-47
2021/05/28 02:58:37;;;;;;;6.23;2.93;;;7.50;99.90;;;;;;5093602;28;20961;-47
2021/05/28 03:01:04;;;;;;;3.20;2.97;;;7.50;99.90;;;;;;5083267;28;20889;-47
2021/05/28 03:03:30;;;;;;;3.30;2.87;;;7.50;99.90;;;;;;5073245;28;20462;-48
2021/05/28 03:05:58;;;;;;;3.60;2.77;;;7.50;99.90;;;;;;5079783;28;20466;-48
2021/05/28 03:08:26;;;;;;;3.07;2.80;;;7.50;99.90;;;;;;5091145;28;20445;-47
2021/05/28 03:10:53;;;;;;;4.07;2.77;;;7.40;99.90;;;;;;5079568;28;20473;-48
2021/05/28 03:13:20;;;;;;;5.77;3.60;;;7.40;99.90;;;;;;5092001;28;20553;-48
2021/05/28 03:15:46;;;;;;;4.60;3.13;;;7.40;99.90;;;;;;5078857;28;20482;-48
2021/05/28 03:18:16;;;;;;;3.90;3.40;;;7.30;99.90;;;;;;5073656;28;20452;-48
2021/05/28 03:20:46;;;;;;;4.63;3.47;;;7.30;99.90;;;;;;5079695;28;20980;-48
2021/05/28 03:23:14;;;;;;;4.83;3.23;;;7.30;99.90;;;;;;5082185;28;20481;-48
2021/05/28 03:25:43;;;;;;;6.30;3.40;;;7.30;99.90;;;;;;5085209;28;20446;-47
2021/05/28 03:28:10;;;;;;;7.73;3.20;;;7.30;99.90;;;;;;5076982;28;20470;-47
2021/05/28 03:30:37;;;;;;;3.33;2.83;;;7.30;99.90;;;;;;5072147;28;20448;-47
2021/05/28 03:33:05;;;;;;;4.30;3.10;;;7.30;99.90;;;;;;5089754;28;20449;-48
2021/05/28 03:35:32;;;;;;;3.70;3.40;;;7.30;99.90;;;;;;5080312;28;20475;-48
2021/05/28 03:37:58;;;;;;;4.37;3.43;;;7.30;99.90;;;;;;5072583;28;20450;-47
2021/05/28 03:40:26;;;;;;;3.80;3.40;;;7.30;99.90;;;;;;5072742;28;20443;-48
2021/05/28 03:42:52;;;;;;;7.10;3.80;;;7.20;99.90;;;;;;5073864;28;20443;-48
2021/05/28 03:45:19;;;;;;;4.93;3.43;;;7.20;99.90;;;;;;5073681;28;20447;-48
2021/05/28 03:47:46;;;;;;;3.93;3.40;;;7.30;99.90;;;;;;5073561;28;20453;-47
2021/05/28 03:50:13;;;;;;;5.50;3.90;;;7.30;99.90;;;;;;5091248;28;20442;-48
2021/05/28 03:52:39;;;;;;;4.67;3.80;;;7.30;99.90;;;;;;5091212;28;20447;-47
2021/05/28 03:55:07;;;;;;;6.33;4.07;;;7.30;99.90;;;;;;5090232;28;20491;-47
2021/05/28 03:57:35;;;;;;;6.03;4.47;;;7.30;99.90;;;;;;5091125;28;20931;-47
2021/05/28 04:00:01;;;;;;;5.43;4.33;;;7.30;99.90;;;;;;5091440;28;20469;-47
2021/05/28 04:02:28;;;;;;;7.57;4.20;;;7.30;99.90;;;;;;5092682;28;20827;-48
2021/05/28 04:04:54;;;;;;;7.80;4.63;;;7.30;99.90;;;;;;5091871;28;20466;-47
2021/05/28 04:07:24;;;;;;;4.17;3.50;;;7.30;99.90;;;;;;5092552;28;20564;-48
2021/05/28 04:09:50;;;;;;;4.30;3.40;;;7.30;99.90;;;;;;5092909;28;20450;-48
2021/05/28 04:12:17;;;;;;;4.10;3.30;;;7.40;99.90;;;;;;5092403;28;20452;-48
2021/05/28 04:14:44;;;;;;;4.40;3.77;;;7.40;99.90;;;;;;5092380;28;20836;-48
2021/05/28 04:17:11;;;;;;;5.37;4.20;;;7.40;99.90;;;;;;5091802;28;20450;-47
2021/05/28 04:19:37;;;;;;;5.60;3.57;;;7.50;99.90;;;;;;5092726;28;20939;-48
2021/05/28 04:22:04;;;;;;;3.93;3.43;;;7.60;99.90;;;;;;5092962;28;20458;-47
2021/05/28 04:24:30;;;;;;;6.23;4.67;;;7.60;99.90;;;;;;5092108;28;21051;-48
2021/05/28 04:26:57;;;;;;;5.77;4.27;;;7.70;99.90;;;;;;5092904;28;20453;-49
2021/05/28 04:29:23;;;;;;;6.00;3.93;;;7.60;99.90;;;;;;5092509;28;20938;-48
2021/05/28 04:31:51;;;;;;;5.23;3.30;;;7.70;99.90;;;;;;5091861;28;20450;-47
2021/05/28 04:34:17;;;;;;;4.03;3.63;;;7.80;99.90;;;;;;5091723;28;20461;-48
2021/05/28 04:36:43;;;;;;;4.20;3.70;;;7.90;99.90;;;;;;5092044;28;20943;-48
2021/05/28 04:39:10;;;;;;;7.10;3.30;;;8.00;99.90;;;;;;5089446;28;20449;-47
2021/05/28 04:41:37;;;;;;;4.10;3.20;;;8.10;99.90;;;;;;5089883;28;20459;-48
2021/05/28 04:44:04;;;;;;;4.53;3.30;;;8.20;99.90;;;;;;5080961;28;20463;-48
2021/05/28 04:46:30;;;;;;;3.80;2.90;;;8.40;99.90;;;;;;5077489;28;20487;-48
2021/05/28 04:48:58;;;;;;;5.50;3.07;;;8.50;99.90;;;;;;5084519;28;20475;-48
2021/05/28 04:51:24;;;;;;;5.93;2.90;;;8.70;99.90;;;;;;5092187;28;20457;-48
2021/05/28 04:53:52;;;;;;;3.90;2.77;;;9.00;99.90;;;;;;5078396;28;20492;-47
2021/05/28 04:56:18;;;;;;;3.80;3.23;;;9.50;99.90;;;;;;5092296;28;20571;-48
2021/05/28 04:58:46;;;;;;;2.53;2.33;;;10.20;99.90;;;;;;5091919;28;20453;-48
2021/05/28 05:01:13;;;;;;;4.40;2.80;;;11.10;99.90;;;;;;5090073;28;20442;-48
2021/05/28 05:03:39;;;;;;;3.80;2.50;;;12.30;99.90;;;;;;5086072;28;20477;-48
2021/05/28 05:06:07;;;;;;;5.47;3.30;;;13.60;99.90;;;;;;5091455;28;20449;-48
2021/05/28 05:08:34;;;;;;;6.73;4.40;;;14.40;99.90;;;;;;5091090;28;20446;-49
2021/05/28 05:11:01;;;;;;;6.00;3.37;;;15.20;99.90;;;;;;5091513;28;20541;-49
2021/05/28 05:13:27;;;;;;;6.73;3.40;;;15.90;99.90;;;;;;5090918;28;20466;-48
2021/05/28 05:15:54;;;;;;;7.00;4.07;;;16.70;99.90;;;;;;5090660;28;20605;-48
2021/05/28 05:18:20;;;;;;;4.30;3.27;;;17.30;99.90;;;;;;5082476;28;20443;-48
2021/05/28 05:20:47;;;;;;;4.20;3.10;;;17.60;99.90;;;;;;5086584;28;20458;-48
2021/05/28 05:23:14;;;;;;;5.33;3.30;;;17.80;99.90;;;;;;5087580;28;21059;-49
2021/05/28 05:25:41;;;;;;;4.00;3.23;;;18.30;99.90;;;;;;5085585;28;20446;-48
2021/05/28 05:28:07;;;;;;;7.30;3.10;;;18.80;99.90;;;;;;5071036;28;20443;-48
2021/05/28 05:30:34;;;;;;;3.83;2.70;;;18.70;99.90;;;;;;5070998;28;20449;-49
2021/05/28 05:33:01;;;;;;;3.53;2.80;;;18.90;99.90;;;;;;5070691;28;20439;-48
2021/05/28 05:35:27;;;;;;;3.63;2.80;;;19.00;99.90;;;;;;5073124;28;20865;-49
2021/05/28 05:37:54;;;;;;;5.53;2.90;;;19.50;99.90;;;;;;5084673;28;20442;-49
2021/05/28 05:40:21;;;;;;;3.73;2.53;;;19.90;99.90;;;;;;5085704;28;20442;-49
2021/05/28 05:42:48;;;;;;;2.50;2.30;;;19.80;99.90;;;;;;5083007;28;20451;-49
2021/05/28 05:45:16;;;;;;;4.60;2.70;;;19.70;99.90;;;;;;5078481;28;20445;-49
2021/05/28 05:47:43;;;;;;;2.47;2.27;;;19.90;99.90;;;;;;5082063;28;20831;-50
2021/05/28 05:50:11;;;;;;;1.87;1.77;;;20.00;99.90;;;;;;5071501;28;20450;-50
2021/05/28 05:52:38;;;;;;;2.20;1.80;;;20.30;99.90;;;;;;5079905;28;20446;-49
2021/05/28 05:55:06;;;;;;;2.07;1.97;;;20.50;99.90;;;;;;5094398;28;20485;-49
2021/05/28 05:57:33;;;;;;;2.60;1.90;;;20.50;99.90;;;;;;5094362;28;20442;-50
2021/05/28 06:00:00;;;;;;;5.37;1.90;;;20.50;99.90;;;;;;5094470;28;20442;-50
2021/05/28 06:02:27;;;;;;;2.50;2.00;;;20.50;99.90;;;;;;5094179;28;20935;-50
2021/05/28 06:04:54;;;;;;;2.37;1.63;;;20.40;99.90;;;;;;5093231;28;20457;-49
2021/05/28 06:07:20;;;;;;;2.03;1.83;;;20.10;99.90;;;;;;5094257;28;20446;-50
2021/05/28 06:09:47;;;;;;;2.10;1.90;;;20.40;99.90;;;;;;5091172;28;20485;-49
2021/05/28 06:12:14;;;;;;;2.90;1.50;;;20.50;99.90;;;;;;5075650;28;20500;-49
2021/05/28 06:14:41;;;;;;;2.67;1.80;;;20.70;99.90;;;;;;5074603;28;20505;-50
2021/05/28 06:17:08;;;;;;;2.13;1.50;;;20.90;99.90;;;;;;5075435;28;20545;-50
2021/05/28 06:19:34;;;;;;;3.57;1.83;;;21.00;99.90;;;;;;5094289;28;20454;-50
2021/05/28 06:22:01;;;;;;;8.40;1.80;;;20.90;99.90;;;;;;5092852;28;20472;-50
2021/05/28 06:24:27;;;;;;;1.97;1.60;;;20.50;99.90;;;;;;5116198;22;20502;-50
2021/05/28 06:26:54;;;;;;;1.53;1.43;;;20.80;99.90;;;;;;5093175;28;21024;-50
2021/05/28 06:29:20;;;;;;;1.97;1.47;;;21.20;99.90;;;;;;5078062;28;20447;-50
2021/05/28 06:31:48;;;;;;;1.60;1.40;;;21.20;99.90;;;;;;5086557;28;20951;-50
2021/05/28 06:34:14;;;;;;;1.87;1.53;;;20.80;99.90;;;;;;5074092;28;20477;-50
2021/05/28 06:36:41;;;;;;;1.60;1.50;;;21.00;99.90;;;;;;5088425;28;20939;-51
2021/05/28 06:39:10;;;;;;;2.37;1.40;;;21.10;99.90;;;;;;5094313;28;20441;-50
2021/05/28 06:41:37;;;;;;;1.73;1.63;;;21.30;99.20;;;;;;5094181;28;20450;-50
2021/05/28 06:44:04;;;;;;;1.53;1.40;;;21.50;98.80;;;;;;5088485;28;20569;-50
2021/05/28 06:46:31;;;;;;;4.83;1.67;;;21.50;98.60;;;;;;5087882;28;20511;-51
2021/05/28 06:48:58;;;;;;;1.60;1.50;;;21.00;99.40;;;;;;5081385;28;20439;-51
2021/05/28 06:51:25;;;;;;;1.43;1.33;;;21.30;98.40;;;;;;5079953;28;20459;-50
2021/05/28 06:53:52;;;;;;;2.30;1.50;;;21.70;98.90;;;;;;5083211;28;20462;-50
2021/05/28 06:56:18;;;;;;;4.73;1.47;;;22.10;98.90;;;;;;5079694;28;20490;-51
2021/05/28 06:58:49;;;;;;;3.67;2.50;;;22.30;98.40;;;;;;5088159;28;20462;-50
2021/05/28 07:01:16;;;;;;;2.97;1.67;;;22.20;99.60;;;;;;5091580;28;20200;-51
2021/05/28 07:03:43;;;;;;;2.67;1.83;;;21.40;99.90;;;;;;5074797;28;20467;-52
2021/05/28 07:06:11;;;;;;;1.90;1.80;;;21.70;99.20;;;;;;5072669;28;20435;-51
2021/05/28 07:08:37;;;;;;;2.10;1.90;;;22.00;98.80;;;;;;5073425;28;20439;-51
2021/05/28 07:11:04;;;;;;;2.30;1.60;;;21.90;99.40;;;;;;5079765;28;20488;-51
2021/05/28 07:13:30;;;;;;;3.70;1.70;;;21.90;99.70;;;;;;5089886;28;20470;-51
2021/05/28 07:15:57;;;;;;;2.40;2.20;;;22.60;98.90;;;;;;5079644;28;20490;-51
2021/05/28 07:18:23;;;;;;;1.80;1.70;;;22.30;98.80;;;;;;5092212;28;20442;-51
2021/05/28 07:20:50;;;;;;;1.50;1.40;;;22.10;99.70;;;;;;5083488;28;20967;-51
2021/05/28 07:23:21;;;;;;;2.37;2.17;;;22.30;97.60;;;;;;5073448;28;20450;-51
2021/05/28 07:25:48;;;;;;;1.93;1.73;;;22.60;97.60;;;;;;5093264;28;20456;-51
2021/05/28 07:28:15;;;;;;;1.80;1.70;;;23.20;96.60;;;;;;5078467;28;20450;-51
2021/05/28 07:30:41;;;;;;;2.80;1.53;;;23.90;95.00;;;;;;5074805;28;20447;-51
2021/05/28 07:33:08;;;;;;;2.70;1.60;;;24.20;95.70;;;;;;5093179;28;20816;-51
2021/05/28 07:35:34;;;;;;;2.43;1.70;;;24.20;93.60;;;;;;5092844;28;20492;-51
2021/05/28 07:38:01;;;;;;;5.17;1.77;;;24.50;93.50;;;;;;5093214;28;20500;-51
2021/05/28 07:40:28;;;;;;;2.60;1.80;;;24.10;93.50;;;;;;5092912;28;20442;-51
2021/05/28 07:42:55;;;;;;;1.90;1.63;;;23.70;95.00;;;;;;5093064;28;20871;-51
2021/05/28 07:45:21;;;;;;;2.13;1.73;;;23.50;96.20;;;;;;5092834;28;20474;-51
2021/05/28 07:47:48;;;;;;;2.17;2.07;;;23.60;94.20;;;;;;5093243;28;20450;-51
2021/05/28 07:50:14;;;;;;;1.70;1.57;;;24.20;92.70;;;;;;5093126;28;20445;-51
2021/05/28 07:52:41;;;;;;;5.73;1.70;;;24.10;93.50;;;;;;5092896;28;20449;-51
2021/05/28 07:55:10;;;;;;;2.10;1.83;;;24.20;92.60;;;;;;5092368;28;20882;-51
2021/05/28 07:57:37;;;;;;;1.90;1.80;;;24.30;91.80;;;;;;5082745;28;20446;-51
2021/05/28 08:00:06;;;;;;;1.70;1.60;;;24.80;91.60;;;;;;5072439;28;20442;-51
2021/05/28 08:02:32;;;;;;;2.03;1.77;;;25.10;90.90;;;;;;5072717;28;20447;-51
2021/05/28 08:04:59;;;;;;;3.67;1.70;;;25.20;91.10;;;;;;5072143;28;20474;-51
2021/05/28 08:07:26;;;;;;;5.30;1.80;;;25.20;90.70;;;;;;5072325;28;20473;-51
2021/05/28 08:09:52;;;;;;;2.30;1.77;;;25.10;91.20;;;;;;5072298;28;21064;-51
2021/05/28 08:12:19;;;;;;;2.07;1.90;;;24.30;90.40;;;;;;5072515;28;20446;-51
2021/05/28 08:14:46;;;;;;;2.40;2.20;;;23.40;93.70;;;;;;5088203;28;20482;-51
2021/05/28 08:17:13;;;;;;;2.13;1.93;;;22.60;95.40;;;;;;5092531;28;20453;-51
2021/05/28 08:19:39;;;;;;;4.23;2.53;;;22.90;93.40;;;;;;5086603;28;20584;-51
2021/05/28 08:22:06;;;;;;;3.60;2.73;;;23.00;95.10;;;;;;5071975;28;20446;-50
2021/05/28 08:24:32;;;;;;;3.90;3.00;;;22.90;98.30;;;;;;5077126;28;20504;-50
2021/05/28 08:26:59;;;;;;;3.55;3.25;;;22.50;97.80;;;;;;5089620;28;20440;-50
2021/05/28 08:29:25;;;;;;;3.77;3.47;;;22.20;99.00;;;;;;5090259;28;20195;-50
2021/05/28 08:31:52;;;;;;;5.07;2.97;;;21.60;99.90;;;;;;5092116;28;20454;-50
2021/05/28 08:34:19;;;;;;;4.07;3.10;;;20.90;99.90;;;;;;5091191;28;20512;-51
2021/05/28 08:36:45;;;;;;;3.60;2.80;;;20.60;99.90;;;;;;5091531;28;20481;-50
2021/05/28 08:39:12;;;;;;;4.93;3.20;;;20.80;99.90;;;;;;5090906;28;20453;-51
2021/05/28 08:41:43;;;;;;;3.60;2.80;;;21.30;99.90;;;;;;5090094;28;20495;-51
2021/05/28 08:44:11;;;;;;;3.13;2.70;;;21.20;98.50;;;;;;5070726;28;20503;-51
2021/05/28 08:46:38;;;;;;;3.40;3.10;;;21.90;99.90;;;;;;5070814;28;20594;-51
2021/05/28 08:49:10;;;;;;;3.20;3.00;;;21.40;99.40;;;;;;5085110;28;20959;-51
2021/05/28 08:51:37;;;;;;;4.07;3.27;;;21.30;99.90;;;;;;5091794;28;20507;-50
2021/05/28 08:54:05;;;;;;;2.97;2.53;;;20.50;99.90;;;;;;5084108;28;20474;-51
2021/05/28 08:56:32;;;;;;;2.50;2.40;;;19.90;99.90;;;;;;5071201;28;20531;-51
2021/05/28 08:59:00;;;;;;;3.27;2.93;;;20.00;99.10;;;;;;5071325;28;20450;-50
2021/05/28 09:01:26;;;;;;;3.33;3.03;;;20.70;98.00;;;;;;5072243;28;20493;-51
2021/05/28 09:03:58;;;;;;;3.07;2.77;;;21.60;98.20;;;;;;5090707;28;20497;-51
2021/05/28 09:06:36;;;;;;;3.00;2.80;;;21.50;99.70;;;;;;5091603;28;20438;-51
2021/05/28 09:09:09;;;;;;;3.10;2.73;;;21.80;98.70;;;;;;5090346;28;20453;-51
2021/05/28 09:11:53;;;;;;;4.33;2.70;;;21.70;98.60;;;;;;5091352;28;20446;-51
2021/05/28 09:14:30;;;;;;;3.00;2.80;;;20.80;99.40;;;;;;5078478;28;20553;-51
2021/05/28 09:16:56;;;;;;;3.50;3.10;;;20.90;99.90;;;;;;5083272;28;20441;-51
2021/05/28 09:19:23;;;;;;;3.00;2.80;;;19.60;99.90;;;;;;5079891;28;20450;-50
2021/05/28 09:21:57;;;;;;;3.27;2.67;;;19.20;99.90;;;;;;5087182;28;20454;-51
2021/05/28 09:24:32;;;;;;;4.03;2.60;;;19.40;99.90;;;;;;5089643;28;20490;-51
2021/05/28 09:27:22;;;;;;;2.50;2.30;;;20.10;99.90;;;;;;5082829;28;20437;-51
2021/05/28 09:30:05;;;;;;;3.37;2.50;;;20.50;99.40;;;;;;5089258;28;20526;-51
2021/05/28 09:32:33;;;;;;;1.83;1.73;;;20.80;99.90;;;;;;5077818;28;20437;-49
2021/05/28 09:35:00;;;;;;;3.53;2.33;;;21.30;97.50;;;;;;5081111;28;20496;-51
2021/05/28 09:37:41;;;;;;;2.50;2.30;;;21.40;99.10;;;;;;5086119;28;20446;-50
2021/05/28 09:40:17;;;;;;;2.90;2.13;;;20.30;99.90;;;;;;5091229;28;20720;-50
2021/05/28 09:42:54;;;;;;;3.00;2.00;;;19.90;99.90;;;;;;5091057;28;20438;-49
2021/05/28 09:45:29;;;;;;;2.50;2.20;;;19.90;99.90;;;;;;5088887;28;20548;-51
2021/05/28 09:47:57;;;;;;;3.33;1.90;;;20.00;99.90;;;;;;5089850;28;20454;-51
2021/05/28 09:50:24;;;;;;;2.03;1.73;;;20.70;99.90;;;;;;5090933;28;20930;-52
2021/05/28 09:52:52;;;;;;;2.30;2.10;;;21.30;98.70;;;;;;5090861;28;20457;-51
2021/05/28 09:55:19;;;;;;;1.90;1.80;;;21.10;99.40;;;;;;5090534;28;20535;-50
2021/05/28 09:57:48;;;;;;;2.50;2.30;;;20.10;99.60;;;;;;5091097;28;20457;-50
2021/05/28 10:00:26;;;;;;;2.57;2.30;;;19.90;99.90;;;;;;5090981;28;20446;-50
2021/05/28 10:03:12;;;;;;;2.10;1.90;;;20.10;99.60;;;;;;5090161;28;20491;-50
2021/05/28 10:05:40;;;;;;;3.53;1.90;;;20.10;99.90;;;;;;5086681;28;20559;-49
2021/05/28 10:08:09;;;;;;;2.00;1.80;;;20.50;99.90;;;;;;5070862;28;20446;-50
2021/05/28 10:10:36;;;;;;;4.50;1.60;;;20.80;99.90;;;;;;5070461;28;20475;-50
2021/05/28 10:13:10;;;;;;;3.50;1.70;;;20.80;99.10;;;;;;5070522;28;20443;-51
2021/05/28 10:15:39;;;;;;;1.70;1.60;;;21.40;98.90;;;;;;5070254;28;20478;-50
2021/05/28 10:18:06;;;;;;;1.80;1.70;;;21.10;98.00;;;;;;5075651;28;20950;-50
2021/05/28 10:20:33;;;;;;;1.97;1.73;;;21.10;98.70;;;;;;5090606;28;20558;-50
2021/05/28 10:22:59;;;;;;;1.90;1.77;;;21.30;99.10;;;;;;5090635;28;20449;-50
2021/05/28 10:25:27;;;;;;;1.60;1.50;;;20.90;96.80;;;;;;5090073;28;20470;-50
2021/05/28 10:28:02;;;;;;;2.30;1.33;;;20.50;97.90;;;;;;5090693;28;20461;-50
2021/05/28 10:30:37;;;;;;;2.20;1.50;;;20.70;98.00;;;;;;5090392;28;20453;-50
2021/05/28 10:33:22;;;;;;;1.73;1.00;;;20.70;97.30;;;;;;5090563;28;20445;-50
2021/05/28 10:35:50;;;;;;;2.10;1.43;;;20.40;94.30;;;;;;5090061;28;20579;-50
2021/05/28 10:38:45;;;;;;;1.90;1.20;;;21.00;97.10;;;;;;5090704;28;20449;-51
2021/05/28 10:41:33;;;;;;;1.50;1.40;;;21.00;96.70;;;;;;5090838;28;20534;-51
2021/05/28 10:44:03;;;;;;;1.30;1.20;;;21.60;97.10;;;;;;5093839;28;20462;-51
2021/05/28 10:46:30;;;;;;;1.30;1.10;;;21.80;93.40;;;;;;5094589;28;20438;-51
2021/05/28 10:49:09;;;;;;;1.70;1.47;;;22.80;92.40;;;;;;5093752;28;20503;-51
2021/05/28 10:52:14;;;;;;;2.20;1.30;;;22.70;91.80;;;;;;5092782;28;20445;-50
2021/05/28 10:54:44;;;;;;;1.93;1.40;;;21.40;95.50;;;;;;5092132;28;20521;-50
2021/05/28 10:57:52;;;;;;;2.93;1.40;;;20.80;95.90;;;;;;5094104;28;20450;-50
2021/05/28 11:00:30;;;;;;;1.40;1.30;;;21.00;94.40;;;;;;5094395;28;20446;-50
2021/05/28 11:03:15;;;;;;;1.60;1.50;;;21.00;95.20;;;;;;5092060;28;20827;-50
2021/05/28 11:05:53;;;;;;;1.67;1.50;;;20.60;96.60;;;;;;5093473;28;20943;-50
2021/05/28 11:08:44;;;;;;;2.80;1.30;;;20.30;95.80;;;;;;5088158;28;20496;-51
2021/05/28 11:11:57;;;;;;;2.60;1.40;;;20.30;96.00;;;;;;5073510;28;20450;-50
2021/05/28 11:14:25;;;;;;;1.33;1.23;;;20.60;95.20;;;;;;5078522;28;20851;-50
2021/05/28 11:17:16;;;;;;;1.37;1.27;;;20.90;95.20;;;;;;5093306;28;20534;-50
2021/05/28 11:19:55;;;;;;;1.87;1.60;;;21.20;96.40;;;;;;5092969;28;20452;-50
2021/05/28 11:22:35;;;;;;;1.93;1.53;;;20.60;96.60;;;;;;5073826;28;20446;-50
2021/05/28 11:25:16;;;;;;;1.77;1.10;;;20.20;96.20;;;;;;5072796;28;20474;-50
2021/05/28 11:27:51;;;;;;;1.20;1.10;;;20.30;96.20;;;;;;5072712;28;21035;-50
2021/05/28 11:30:37;;;;;;;2.03;1.93;;;20.00;97.10;;;;;;5072373;28;20478;-50
2021/05/28 11:33:03;;;;;;;1.40;1.30;;;20.30;96.80;;;;;;5072326;28;20443;-50
2021/05/28 11:35:37;;;;;;;1.60;1.50;;;20.10;96.60;;;;;;5090854;28;20481;-50
2021/05/28 11:38:05;;;;;;;1.20;1.10;;;19.40;96.30;;;;;;5085941;28;20469;-50
2021/05/28 11:40:38;;;;;;;1.67;1.57;;;19.80;98.40;;;;;;5084393;28;20478;-50
2021/05/28 11:43:06;;;;;;;3.87;1.60;;;19.80;97.40;;;;;;5090691;28;20947;-51
2021/05/28 11:45:35;;;;;;;1.63;1.33;;;20.30;97.00;;;;;;5079932;28;20871;-50
2021/05/28 11:48:02;;;;;;;1.33;1.23;;;20.80;97.10;;;;;;5091728;28;20838;-50
2021/05/28 11:50:39;;;;;;;3.43;1.67;;;21.00;97.80;;;;;;5090159;28;20473;-50
2021/05/28 11:53:07;;;;;;;1.57;1.47;;;20.20;98.60;;;;;;5080963;28;20446;-50
2021/05/28 11:55:43;;;;;;;1.70;1.60;;;20.50;98.70;;;;;;5073326;28;20994;-50
2021/05/28 11:58:10;;;;;;;1.97;1.53;;;20.50;98.40;;;;;;5077393;28;20457;-50
2021/05/28 12:00:37;;;;;;;1.43;1.33;;;20.90;97.20;;;;;;5093267;28;21044;-50
2021/05/28 12:03:04;;;;;;;2.30;1.40;;;20.70;96.40;;;;;;5092377;28;21027;-50
2021/05/28 12:05:34;;;;;;;1.40;1.30;;;20.80;96.00;;;;;;5080250;28;20558;-50
2021/05/28 12:08:15;;;;;;;2.30;1.40;;;20.80;96.70;;;;;;5086151;28;20462;-50
2021/05/28 12:10:43;;;;;;;1.50;1.40;;;20.50;95.70;;;;;;5092603;28;20491;-50
2021/05/28 12:13:14;;;;;;;1.60;1.50;;;20.30;98.80;;;;;;5092408;28;20468;-50
2021/05/28 12:15:43;;;;;;;1.63;1.53;;;20.30;96.70;;;;;;5092471;28;20504;-50
2021/05/28 12:18:18;;;;;;;1.53;1.30;;;20.30;97.40;;;;;;5091436;28;20955;-50
2021/05/28 12:20:46;;;;;;;2.23;1.10;;;20.10;96.80;;;;;;5091439;28;20530;-50
2021/05/28 12:23:18;;;;;;;1.70;1.10;;;20.10;96.80;;;;;;5091540;28;20457;-51
2021/05/28 12:25:48;;;;;;;2.00;1.20;;;19.90;97.10;;;;;;5099055;22;20499;-49
2021/05/28 12:28:20;;;;;;;1.70;1.40;;;20.40;95.90;;;;;;5072088;28;20486;-50
2021/05/28 12:30:50;;;;;;;2.20;1.60;;;20.70;97.60;;;;;;5072191;28;20450;-49
2021/05/28 12:33:19;;;;;;;1.43;1.30;;;20.10;95.60;;;;;;5071309;28;20538;-49
2021/05/28 12:35:51;;;;;;;1.30;1.20;;;19.80;96.60;;;;;;5071190;28;20478;-49
2021/05/28 12:38:19;;;;;;;2.27;1.50;;;20.00;98.10;;;;;;5072026;28;20458;-49
2021/05/28 12:40:48;;;;;;;1.63;1.37;;;19.80;96.80;;;;;;5072090;28;20443;-50
2021/05/28 12:43:28;;;;;;;2.43;1.50;;;19.90;98.70;;;;;;5072046;28;20451;-49
2021/05/28 12:45:57;;;;;;;2.13;1.60;;;20.10;98.00;;;;;;5071953;28;20465;-49
2021/05/28 12:48:41;;;;;;;2.10;1.23;;;19.70;98.80;;;;;;5071622;28;20463;-50
2021/05/28 12:51:08;;;;;;;1.73;1.63;;;19.80;97.60;;;;;;5071472;28;20496;-49
2021/05/28 12:53:37;;;;;;;1.33;1.23;;;19.90;97.70;;;;;;5071478;28;20451;-50
2021/05/28 12:56:05;;;;;;;1.97;1.60;;;20.10;98.70;;;;;;5051754;28;20492;-50
2021/05/28 12:58:33;;;;;;;3.20;1.63;;;20.30;99.20;;;;;;5051840;28;20996;-50
2021/05/28 13:01:03;;;;;;;2.50;1.40;;;20.50;96.90;;;;;;5054150;28;20450;-49